createdAt,value
2023-04-12T00:01:04.899Z,4.90
2023-04-12T00:03:34.158Z,5.88
2023-04-12T00:06:03.452Z,6.38
2023-04-12T00:08:33.883Z,5.82
2023-04-12T00:11:02.349Z,6.55
2023-04-12T00:13:30.447Z,6.28
2023-04-12T00:15:57.512Z,5.90
2023-04-12T00:18:25.385Z,5.22
2023-04-12T00:20:53.237Z,4.93
2023-04-12T00:23:20.732Z,4.07
2023-04-12T00:25:48.138Z,4.60
2023-04-12T00:28:16.024Z,4.55
2023-04-12T00:30:44.966Z,6.40
2023-04-12T00:33:11.980Z,5.20
2023-04-12T00:35:38.953Z,6.50
2023-04-12T00:38:10.386Z,5.55
2023-04-12T00:40:42.743Z,5.10
2023-04-12T00:43:15.639Z,4.65
2023-04-12T00:45:42.777Z,6.20
2023-04-12T00:48:10.798Z,7.10
2023-04-12T00:50:37.807Z,6.70
2023-04-12T00:53:04.759Z,6.70
2023-04-12T00:55:32.154Z,7.00
2023-04-12T00:57:59.384Z,5.55
2023-04-12T01:00:26.434Z,5.85
2023-04-12T01:02:53.826Z,6.68
2023-04-12T01:05:23.833Z,6.18
2023-04-12T01:08:26.098Z,6.35
2023-04-12T01:11:26.011Z,5.10
2023-04-12T01:14:07.495Z,5.30
2023-04-12T01:16:58.096Z,5.60
2023-04-12T01:19:35.563Z,5.22
2023-04-12T01:22:09.122Z,7.07
2023-04-12T01:25:14.200Z,4.75
2023-04-12T01:27:51.005Z,4.90
2023-04-12T01:30:20.545Z,6.35
2023-04-12T01:32:51.419Z,6.75
2023-04-12T01:35:21.304Z,6.78
2023-04-12T01:37:48.442Z,5.68
2023-04-12T01:40:18.837Z,5.70
2023-04-12T01:42:46.259Z,5.45
2023-04-12T01:45:13.166Z,5.30
2023-04-12T01:47:40.203Z,7.35
2023-04-12T01:50:25.635Z,6.07
2023-04-12T01:53:13.999Z,5.18
2023-04-12T01:55:45.881Z,5.28
2023-04-12T01:58:15.361Z,6.93
2023-04-12T02:00:45.151Z,6.55
2023-04-12T02:03:12.791Z,7.88
2023-04-12T02:05:40.327Z,7.68
2023-04-12T02:08:07.546Z,6.38
2023-04-12T02:10:36.667Z,5.90
2023-04-12T02:13:04.331Z,8.20
2023-04-12T02:15:31.678Z,8.32
2023-04-12T02:18:00.448Z,7.45
2023-04-12T02:20:28.174Z,7.47
2023-04-12T02:22:55.321Z,8.95
2023-04-12T02:25:22.365Z,10.05
2023-04-12T02:27:49.535Z,8.02
2023-04-12T02:30:17.029Z,8.45
2023-04-12T02:32:48.169Z,10.90
2023-04-12T02:35:22.814Z,11.15
2023-04-12T02:37:54.931Z,10.82
2023-04-12T02:40:24.026Z,8.15
2023-04-12T02:42:51.713Z,8.13
2023-04-12T02:45:19.089Z,11.63
2023-04-12T02:47:46.146Z,8.48
2023-04-12T02:50:13.303Z,11.82
2023-04-12T02:52:52.783Z,9.35
2023-04-12T02:55:19.776Z,12.82
2023-04-12T02:57:48.543Z,9.68
2023-04-12T03:00:16.907Z,9.90
2023-04-12T03:02:52.968Z,12.18
2023-04-12T03:05:27.558Z,10.18
2023-04-12T03:07:55.387Z,13.13
2023-04-12T03:10:29.836Z,13.50
2023-04-12T03:13:02.259Z,9.25
2023-04-12T03:15:37.795Z,13.02
2023-04-12T03:18:05.474Z,13.80
2023-04-12T03:20:46.039Z,9.98
2023-04-12T03:23:14.661Z,9.77
2023-04-12T03:25:45.707Z,14.30
2023-04-12T03:28:29.701Z,9.98
2023-04-12T03:30:57.911Z,9.60
2023-04-12T03:33:32.856Z,9.55
2023-04-12T03:36:03.072Z,13.15
2023-04-12T03:38:31.895Z,14.32
2023-04-12T03:40:59.460Z,10.88
2023-04-12T03:43:37.330Z,10.13
2023-04-12T03:46:09.365Z,10.80
2023-04-12T03:48:37.781Z,9.90
2023-04-12T03:51:12.125Z,14.25
2023-04-12T03:53:43.672Z,9.88
2023-04-12T03:56:15.395Z,13.93
2023-04-12T03:58:45.469Z,10.35
2023-04-12T04:01:14.045Z,13.25
2023-04-12T04:03:44.970Z,10.07
2023-04-12T04:06:31.634Z,9.75
2023-04-12T04:08:58.741Z,9.05
2023-04-12T04:11:27.395Z,10.52
2023-04-12T04:14:03.869Z,8.95
2023-04-12T04:16:31.522Z,9.07
2023-04-12T04:19:00.639Z,9.38
2023-04-12T04:21:30.545Z,9.68
2023-04-12T04:24:02.546Z,9.88
2023-04-12T04:26:34.891Z,9.52
2023-04-12T04:29:11.928Z,13.70
2023-04-12T04:31:40.025Z,9.50
2023-04-12T04:34:09.460Z,10.02
2023-04-12T04:36:42.060Z,9.77
2023-04-12T04:39:09.899Z,9.65
2023-04-12T04:41:42.242Z,9.13
2023-04-12T04:44:36.101Z,13.68
2023-04-12T04:47:08.608Z,14.27
2023-04-12T04:49:38.865Z,10.77
2023-04-12T04:52:21.341Z,14.60
2023-04-12T04:54:49.748Z,10.20
2023-04-12T04:57:17.301Z,14.93
2023-04-12T04:59:44.837Z,10.70
2023-04-12T05:02:17.545Z,14.63
2023-04-12T05:04:45.584Z,10.00
2023-04-12T05:07:15.912Z,14.20
2023-04-12T05:09:45.489Z,14.43
2023-04-12T05:12:12.759Z,14.40
2023-04-12T05:14:47.992Z,11.48
2023-04-12T05:17:18.735Z,10.05
2023-04-12T05:19:45.760Z,10.40
2023-04-12T05:22:13.966Z,10.23
2023-04-12T05:24:41.439Z,10.52
2023-04-12T05:27:08.927Z,11.25
2023-04-12T05:29:35.872Z,16.10
2023-04-12T05:32:04.438Z,16.65
2023-04-12T05:34:31.689Z,15.10
2023-04-12T05:36:59.902Z,15.50
2023-04-12T05:39:31.760Z,11.35
2023-04-12T05:41:58.923Z,15.80
2023-04-12T05:44:27.169Z,15.75
2023-04-12T05:46:54.268Z,15.63
2023-04-12T05:49:21.637Z,15.80
2023-04-12T05:52:08.573Z,16.45
2023-04-12T05:54:35.930Z,11.15
2023-04-12T05:57:03.394Z,15.82
2023-04-12T05:59:31.236Z,15.82
2023-04-12T06:01:59.225Z,11.57
2023-04-12T06:04:42.161Z,12.10
2023-04-12T06:07:17.828Z,10.82
2023-04-12T06:09:44.982Z,15.40
2023-04-12T06:12:12.085Z,16.08
2023-04-12T06:14:40.387Z,11.77
2023-04-12T06:17:08.489Z,10.38
2023-04-12T06:19:35.557Z,11.40
2023-04-12T06:22:02.624Z,14.25
2023-04-12T06:24:31.640Z,15.05
2023-04-12T06:26:58.621Z,15.38
2023-04-12T06:29:26.278Z,15.48
2023-04-12T06:31:53.426Z,16.40
2023-04-12T06:34:20.554Z,15.30
2023-04-12T06:36:48.063Z,10.88
2023-04-12T06:39:16.285Z,15.93
2023-04-12T06:41:47.664Z,16.35
2023-04-12T06:44:19.467Z,16.17
2023-04-12T06:46:46.622Z,15.75
2023-04-12T06:49:13.699Z,15.95
2023-04-12T06:51:41.008Z,10.50
2023-04-12T06:54:07.935Z,15.90
2023-04-12T06:56:37.197Z,11.20
2023-04-12T06:59:04.504Z,10.20
2023-04-12T07:01:31.698Z,9.93
2023-04-12T07:03:58.776Z,14.80
2023-04-12T07:06:27.608Z,14.60
2023-04-12T07:08:55.065Z,11.02
2023-04-12T07:11:23.070Z,10.52
2023-04-12T07:13:51.687Z,14.38
2023-04-12T07:16:19.027Z,14.38
2023-04-12T07:18:46.360Z,10.77
2023-04-12T07:21:14.525Z,15.50
2023-04-12T07:23:41.651Z,10.68
2023-04-12T07:26:08.611Z,14.00
2023-04-12T07:28:39.228Z,14.30
2023-04-12T07:31:07.119Z,14.73
2023-04-12T07:33:36.084Z,15.73
2023-04-12T07:36:04.872Z,15.38
2023-04-12T07:38:32.082Z,9.63
2023-04-12T07:40:59.005Z,14.05
2023-04-12T07:43:26.098Z,15.65
2023-04-12T07:45:55.803Z,15.10
2023-04-12T07:48:22.815Z,14.20
2023-04-12T07:50:50.534Z,14.98
2023-04-12T07:53:26.463Z,14.60
2023-04-12T07:55:54.521Z,16.08
2023-04-12T07:58:23.347Z,13.90
2023-04-12T08:00:54.528Z,11.00
2023-04-12T08:03:21.945Z,15.35
2023-04-12T08:05:53.751Z,13.63
2023-04-12T08:08:22.390Z,15.13
2023-04-12T08:10:51.078Z,14.75
2023-04-12T08:13:18.830Z,13.88
2023-04-12T08:15:47.470Z,13.23
2023-04-12T08:18:15.280Z,13.13
2023-04-12T08:20:44.200Z,10.02
2023-04-12T08:23:12.042Z,13.15
2023-04-12T08:25:39.736Z,13.15
2023-04-12T08:28:09.474Z,9.00
2023-04-12T08:30:36.704Z,12.80
2023-04-12T08:33:03.717Z,12.82
2023-04-12T08:35:30.864Z,13.13
2023-04-12T08:37:57.990Z,12.40
2023-04-12T08:40:25.616Z,12.65
2023-04-12T08:42:56.040Z,12.50
2023-04-12T08:45:29.212Z,12.10
2023-04-12T08:47:56.683Z,12.00
2023-04-12T08:50:25.704Z,12.55
2023-04-12T08:52:53.221Z,13.07
2023-04-12T08:55:20.435Z,13.63
2023-04-12T08:57:48.364Z,13.30
2023-04-12T09:00:17.088Z,12.25
2023-04-12T09:02:46.998Z,12.25
2023-04-12T09:05:14.969Z,12.52
2023-04-12T09:07:43.249Z,12.48
2023-04-12T09:10:10.402Z,12.68
2023-04-12T09:12:47.095Z,11.95
2023-04-12T09:15:17.666Z,13.48
2023-04-12T09:17:44.883Z,13.73
2023-04-12T09:20:18.112Z,12.63
2023-04-12T09:22:46.503Z,12.45
2023-04-12T09:25:15.162Z,13.90
2023-04-12T09:27:49.756Z,14.25
2023-04-12T09:30:18.313Z,13.82
2023-04-12T09:32:46.258Z,14.90
2023-04-12T09:35:13.320Z,13.48
2023-04-12T09:37:40.768Z,13.52
2023-04-12T09:40:09.729Z,13.40
2023-04-12T09:42:52.232Z,14.10
2023-04-12T09:45:24.402Z,13.27
2023-04-12T09:47:52.814Z,13.25
2023-04-12T09:50:24.515Z,12.55
2023-04-12T09:52:53.132Z,12.23
2023-04-12T09:55:22.812Z,13.05
2023-04-12T09:57:52.246Z,12.43
2023-04-12T10:00:22.469Z,13.18
2023-04-12T10:02:52.290Z,12.20
2023-04-12T10:05:23.069Z,12.77
2023-04-12T10:07:50.795Z,13.60
2023-04-12T10:10:19.905Z,13.18
2023-04-12T10:12:48.625Z,13.55
2023-04-12T10:15:21.098Z,12.95
2023-04-12T10:17:55.309Z,13.80
2023-04-12T10:20:26.159Z,13.23
2023-04-12T10:22:56.189Z,12.82
2023-04-12T10:25:27.326Z,12.82
2023-04-12T10:27:54.367Z,13.88
2023-04-12T10:30:22.847Z,12.48
2023-04-12T10:33:11.341Z,11.85
2023-04-12T10:36:03.509Z,10.50
2023-04-12T10:38:37.399Z,10.13
2023-04-12T10:41:15.552Z,11.30
2023-04-12T10:43:50.176Z,10.68
2023-04-12T10:46:38.670Z,9.97
2023-04-12T10:49:16.745Z,9.50
2023-04-12T10:52:05.574Z,10.10
2023-04-12T10:54:37.262Z,9.93
2023-04-12T10:57:06.737Z,10.35
2023-04-12T10:59:55.662Z,10.25
2023-04-12T11:02:23.035Z,10.68
2023-04-12T11:05:11.885Z,10.55
2023-04-12T11:07:55.304Z,10.20
2023-04-12T11:10:39.732Z,35.50
2023-04-12T11:13:09.477Z,17.60
2023-04-12T11:15:39.789Z,11.38
2023-04-12T11:18:12.430Z,10.18
2023-04-12T11:20:42.796Z,10.75
2023-04-12T11:23:11.781Z,10.95
2023-04-12T11:25:38.952Z,11.05
2023-04-12T11:28:17.222Z,11.45
2023-04-12T11:30:56.391Z,10.68
2023-04-12T11:33:36.158Z,11.38
2023-04-12T11:36:14.560Z,15.32
2023-04-12T11:38:41.894Z,10.93
2023-04-12T11:41:09.692Z,11.02
2023-04-12T11:43:40.356Z,11.00
2023-04-12T11:46:07.610Z,10.82
2023-04-12T11:48:35.076Z,11.10
2023-04-12T11:51:18.086Z,12.30
2023-04-12T11:53:55.977Z,11.45
2023-04-12T11:56:23.949Z,11.77
2023-04-12T11:58:51.393Z,12.32
2023-04-12T12:01:20.321Z,12.65
2023-04-12T12:03:48.115Z,12.02
2023-04-12T12:06:16.623Z,11.30
2023-04-12T12:08:44.231Z,12.15
2023-04-12T12:11:12.031Z,12.27
2023-04-12T12:13:47.422Z,13.43
2023-04-12T12:16:14.519Z,12.43
2023-04-12T12:18:46.273Z,12.02
2023-04-12T12:21:14.984Z,11.55
2023-04-12T12:23:46.138Z,11.30
2023-04-12T12:26:28.035Z,12.05
2023-04-12T12:28:56.900Z,12.00
2023-04-12T12:31:28.339Z,12.85
2023-04-12T12:33:57.390Z,12.77
2023-04-12T12:36:35.918Z,12.13
2023-04-12T12:39:12.914Z,12.10
2023-04-12T12:41:41.173Z,12.60
2023-04-12T12:44:08.903Z,12.18
2023-04-12T12:46:51.993Z,11.05
2023-04-12T12:49:20.847Z,11.48
2023-04-12T12:51:47.832Z,10.98
2023-04-12T12:54:28.503Z,10.27
2023-04-12T12:57:04.410Z,10.38
2023-04-12T12:59:31.408Z,11.00
2023-04-12T13:01:58.412Z,11.23
2023-04-12T13:04:25.624Z,10.82
2023-04-12T13:06:52.692Z,10.07
2023-04-12T13:09:19.611Z,11.07
2023-04-12T13:11:46.735Z,10.88
2023-04-12T13:14:13.656Z,10.68
2023-04-12T13:16:41.134Z,10.88
2023-04-12T13:19:08.197Z,10.15
2023-04-12T13:21:35.242Z,10.50
2023-04-12T13:24:02.124Z,11.02
2023-04-12T13:26:29.196Z,11.30
2023-04-12T13:28:56.555Z,10.68
2023-04-12T13:31:23.771Z,10.13
2023-04-12T13:33:50.804Z,9.80
2023-04-12T13:36:17.729Z,9.80
2023-04-12T13:38:44.622Z,9.82
2023-04-12T13:41:11.631Z,10.02
2023-04-12T13:43:38.547Z,9.30
2023-04-12T13:46:05.829Z,9.70
2023-04-12T13:48:33.147Z,10.75
2023-04-12T13:51:00.222Z,10.45
2023-04-12T13:53:27.160Z,10.30
2023-04-12T13:55:54.054Z,9.80
2023-04-12T13:58:21.093Z,10.18
2023-04-12T14:00:48.282Z,10.13
2023-04-12T14:03:15.308Z,10.00
2023-04-12T14:05:42.265Z,10.35
2023-04-12T14:08:09.285Z,10.65
2023-04-12T14:10:36.268Z,10.25
2023-04-12T14:13:03.601Z,10.48
2023-04-12T14:15:30.555Z,10.52
2023-04-12T14:17:57.570Z,10.05
2023-04-12T14:20:25.116Z,9.88
2023-04-12T14:22:52.090Z,9.85
2023-04-12T14:25:19.139Z,10.57
2023-04-12T14:27:46.111Z,9.77
2023-04-12T14:30:13.377Z,10.15
2023-04-12T14:32:41.244Z,10.40
2023-04-12T14:35:09.505Z,9.50
2023-04-12T14:37:36.511Z,9.35
2023-04-12T14:40:06.473Z,10.20
2023-04-12T14:42:33.607Z,10.15
2023-04-12T14:45:00.907Z,10.13
2023-04-12T14:47:27.810Z,10.30
2023-04-12T14:49:54.732Z,10.10
2023-04-12T14:52:21.829Z,9.65
2023-04-12T14:54:48.773Z,10.00
2023-04-12T14:57:15.808Z,10.55
2023-04-12T14:59:42.798Z,10.20
2023-04-12T15:02:09.987Z,10.25
2023-04-12T15:04:37.334Z,10.27
2023-04-12T15:07:04.406Z,10.30
2023-04-12T15:09:31.354Z,10.30
2023-04-12T15:12:01.472Z,10.32
2023-04-12T15:14:28.978Z,11.32
2023-04-12T15:16:56.156Z,12.10
2023-04-12T15:19:23.948Z,11.10
2023-04-12T15:21:52.559Z,10.57
2023-04-12T15:24:19.824Z,10.88
2023-04-12T15:26:48.593Z,11.23
2023-04-12T15:29:18.673Z,11.50
2023-04-12T15:31:46.089Z,12.52
2023-04-12T15:34:16.109Z,11.57
2023-04-12T15:36:43.773Z,11.77
2023-04-12T15:39:11.337Z,11.77
2023-04-12T15:41:39.629Z,10.98
2023-04-12T15:44:08.426Z,11.55
2023-04-12T15:46:36.287Z,11.52
2023-04-12T15:49:03.882Z,10.88
2023-04-12T15:51:32.086Z,11.45
2023-04-12T15:53:59.312Z,11.25
2023-04-12T15:56:26.499Z,10.48
2023-04-12T15:58:57.995Z,10.18
2023-04-12T16:01:25.344Z,11.13
2023-04-12T16:03:53.194Z,11.82
2023-04-12T16:06:20.980Z,11.80
2023-04-12T16:08:48.593Z,11.75
2023-04-12T16:11:20.199Z,11.65
2023-04-12T16:13:48.520Z,10.23
2023-04-12T16:16:17.813Z,11.60
2023-04-12T16:18:46.190Z,11.38
2023-04-12T16:21:19.717Z,13.10
2023-04-12T16:23:48.308Z,12.15
2023-04-12T16:26:21.854Z,13.32
2023-04-12T16:28:55.824Z,11.95
2023-04-12T16:31:25.258Z,12.57
2023-04-12T16:33:52.820Z,13.20
2023-04-12T16:36:23.360Z,12.82
2023-04-12T16:38:51.714Z,12.38
2023-04-12T16:41:19.015Z,12.98
2023-04-12T16:43:46.018Z,12.35
2023-04-12T16:46:13.113Z,12.75
2023-04-12T16:48:41.600Z,12.30
2023-04-12T16:51:08.894Z,11.30
2023-04-12T16:53:36.627Z,11.75
2023-04-12T16:56:04.491Z,11.05
2023-04-12T16:58:31.639Z,11.80
2023-04-12T17:00:58.840Z,12.45
2023-04-12T17:03:25.961Z,12.50
2023-04-12T17:05:53.114Z,11.43
2023-04-12T17:08:20.066Z,11.45
2023-04-12T17:10:47.096Z,12.38
2023-04-12T17:13:17.803Z,12.63
2023-04-12T17:15:48.000Z,11.95
2023-04-12T17:18:15.502Z,11.25
2023-04-12T17:20:43.190Z,11.60
2023-04-12T17:23:10.621Z,11.73
2023-04-12T17:25:37.939Z,12.65
2023-04-12T17:28:05.266Z,11.90
2023-04-12T17:30:32.551Z,12.52
2023-04-12T17:33:01.684Z,13.20
2023-04-12T17:35:28.983Z,12.23
2023-04-12T17:37:56.419Z,11.90
2023-04-12T17:40:23.388Z,12.30
2023-04-12T17:42:50.535Z,13.43
2023-04-12T17:45:19.240Z,12.10
2023-04-12T17:47:46.268Z,17.83
2023-04-12T17:50:13.871Z,27.02
2023-04-12T17:52:41.055Z,13.75
2023-04-12T17:55:12.509Z,13.13
2023-04-12T17:57:39.763Z,13.40
2023-04-12T18:00:11.793Z,13.40
2023-04-12T18:02:43.909Z,13.27
2023-04-12T18:05:11.887Z,13.25
2023-04-12T18:07:40.249Z,14.23
2023-04-12T18:10:12.744Z,14.15
2023-04-12T18:12:40.831Z,13.88
2023-04-12T18:15:08.589Z,12.88
2023-04-12T18:17:35.854Z,13.57
2023-04-12T18:20:04.880Z,13.02
2023-04-12T18:22:31.929Z,14.75
2023-04-12T18:24:58.896Z,14.25
2023-04-12T18:27:25.810Z,15.55
2023-04-12T18:29:52.897Z,15.65
2023-04-12T18:32:20.054Z,16.02
2023-04-12T18:34:47.047Z,15.73
2023-04-12T18:37:14.200Z,17.27
2023-04-12T18:39:42.792Z,16.33
2023-04-12T18:42:09.820Z,17.80
2023-04-12T18:44:37.773Z,17.17
2023-04-12T18:47:04.872Z,17.50
2023-04-12T18:49:33.523Z,17.58
2023-04-12T18:52:00.699Z,18.42
2023-04-12T18:54:27.843Z,18.48
2023-04-12T18:56:56.436Z,20.48
2023-04-12T18:59:24.267Z,20.48
2023-04-12T19:01:53.267Z,20.65
2023-04-12T19:04:21.014Z,22.13
2023-04-12T19:06:48.031Z,21.02
2023-04-12T19:09:16.812Z,21.15
2023-04-12T19:11:45.791Z,15.27
2023-04-12T19:14:14.688Z,20.77
2023-04-12T19:16:44.389Z,22.05
2023-04-12T19:19:21.072Z,21.25
2023-04-12T19:21:51.161Z,15.98
2023-04-12T19:24:20.068Z,21.63
2023-04-12T19:26:49.194Z,22.20
2023-04-12T19:29:20.052Z,21.00
2023-04-12T19:31:47.634Z,22.27
2023-04-12T19:34:17.992Z,21.70
2023-04-12T19:36:52.731Z,15.00
2023-04-12T19:39:23.994Z,21.30
2023-04-12T19:42:01.332Z,15.57
2023-04-12T19:44:31.451Z,20.75
2023-04-12T19:47:01.351Z,13.57
2023-04-12T19:49:30.814Z,20.20
2023-04-12T19:52:05.605Z,19.00
2023-04-12T19:54:37.374Z,14.30
2023-04-12T19:57:09.644Z,13.77
2023-04-12T19:59:39.127Z,20.85
2023-04-12T20:02:09.713Z,20.42
2023-04-12T20:04:37.220Z,13.30
2023-04-12T20:07:07.091Z,18.55
2023-04-12T20:09:54.729Z,14.40
2023-04-12T20:14:50.616Z,19.58
2023-04-12T20:17:19.844Z,19.67
2023-04-12T20:19:50.002Z,19.23
2023-04-12T20:22:22.843Z,13.30
2023-04-12T20:24:54.100Z,19.35
2023-04-12T20:27:32.355Z,19.25
2023-04-12T20:32:29.308Z,17.73
2023-04-12T20:34:59.347Z,15.30
2023-04-12T20:37:30.648Z,17.75
2023-04-12T20:39:59.503Z,13.30
2023-04-12T20:42:30.270Z,16.42
2023-04-12T20:44:58.480Z,11.93
2023-04-12T20:47:26.030Z,12.30
2023-04-12T20:49:56.880Z,16.08
2023-04-12T20:52:26.469Z,15.07
2023-04-12T20:54:58.301Z,12.13
2023-04-12T20:57:27.586Z,10.80
2023-04-12T20:59:55.439Z,11.52
2023-04-12T21:02:23.091Z,15.98
2023-04-12T21:04:50.864Z,11.88
2023-04-12T21:07:20.144Z,11.15
2023-04-12T21:09:47.107Z,17.30
2023-04-12T21:12:14.052Z,16.23
2023-04-12T21:14:41.487Z,13.05
2023-04-12T21:17:08.571Z,16.60
2023-04-12T21:19:41.987Z,18.20
2023-04-12T21:22:09.132Z,17.58
2023-04-12T21:24:38.537Z,11.93
2023-04-12T21:27:09.522Z,18.35
2023-04-12T21:29:41.716Z,18.63
2023-04-12T21:32:09.309Z,28.27
2023-04-12T21:34:37.413Z,21.17
2023-04-12T21:37:04.573Z,12.88
2023-04-12T21:39:32.386Z,17.50
2023-04-12T21:41:59.290Z,12.93
2023-04-12T21:44:26.825Z,12.68
2023-04-12T21:46:53.746Z,13.48
2023-04-12T21:49:20.986Z,18.30
2023-04-12T21:51:49.221Z,19.05
2023-04-12T21:54:16.729Z,20.05
2023-04-12T21:56:43.820Z,16.75
2023-04-12T21:59:10.856Z,12.93
2023-04-12T22:01:38.093Z,15.60
2023-04-12T22:04:05.916Z,14.10
2023-04-12T22:06:32.948Z,22.45
2023-04-12T22:09:02.005Z,21.52
2023-04-12T22:11:30.515Z,22.73
2023-04-12T22:13:57.835Z,21.92
2023-04-12T22:16:24.956Z,17.17
2023-04-12T22:18:52.790Z,22.98
2023-04-12T22:21:20.667Z,22.60
2023-04-12T22:23:47.632Z,22.30
2023-04-12T22:26:15.269Z,16.08
2023-04-12T22:28:44.182Z,23.75
2023-04-12T22:31:16.483Z,16.75
2023-04-12T22:33:43.766Z,24.02
2023-04-12T22:36:10.973Z,17.05
2023-04-12T22:38:38.353Z,15.95
2023-04-12T22:41:06.403Z,14.90
2023-04-12T22:43:42.159Z,16.50
2023-04-12T22:46:16.184Z,24.23
2023-04-12T22:48:48.010Z,15.90
2023-04-12T22:51:15.380Z,16.10
2023-04-12T22:53:43.383Z,23.85
2023-04-12T22:56:11.274Z,16.75
2023-04-12T22:58:40.199Z,25.30
2023-04-12T23:01:10.924Z,15.68
2023-04-12T23:03:38.187Z,17.83
2023-04-12T23:06:05.438Z,25.42
2023-04-12T23:08:32.349Z,18.42
2023-04-12T23:11:02.474Z,17.65
2023-04-12T23:13:29.912Z,25.80
2023-04-12T23:15:57.685Z,17.75
2023-04-12T23:18:25.782Z,17.02
2023-04-12T23:20:53.998Z,25.85
2023-04-12T23:23:23.067Z,17.90
2023-04-12T23:25:50.666Z,24.23
2023-04-12T23:28:19.490Z,17.17
2023-04-12T23:30:49.116Z,18.38
2023-04-12T23:33:20.819Z,17.83
2023-04-12T23:35:55.932Z,26.65
2023-04-12T23:38:25.926Z,19.88
2023-04-12T23:40:55.690Z,18.30
2023-04-12T23:43:23.725Z,17.80
2023-04-12T23:45:52.230Z,27.27
2023-04-12T23:48:19.417Z,18.67
2023-04-12T23:50:46.577Z,18.63
2023-04-12T23:53:14.116Z,17.65
2023-04-12T23:55:47.031Z,18.02
2023-04-12T23:58:13.945Z,18.30
